sensor_id;sensor_type;location;lat;lon;timestamp;noise_LAeq;noise_LA_min;noise_LA_max;noise_LA01;noise_LA95
41704;Laerm;861;48.808;9.006;2023-04-01T00:01:10;35.05;33.73;36.44;;
41704;Laerm;861;48.808;9.006;2023-04-01T00:03:38;35.06;33.70;36.73;;
41704;Laerm;861;48.808;9.006;2023-04-01T00:06:05;35.09;33.74;36.30;;
41704;Laerm;861;48.808;9.006;2023-04-01T00:08:32;35.08;33.65;36.20;;
41704;Laerm;861;48.808;9.006;2023-04-01T00:10:59;35.15;33.75;40.72;;
41704;Laerm;861;48.808;9.006;2023-04-01T00:13:27;35.09;33.95;36.87;;
41704;Laerm;861;48.808;9.006;2023-04-01T00:15:55;35.08;33.74;36.45;;
41704;Laerm;861;48.808;9.006;2023-04-01T00:18:25;35.08;33.81;36.39;;
41704;Laerm;861;48.808;9.006;2023-04-01T00:20:53;35.12;33.83;38.71;;
41704;Laerm;861;48.808;9.006;2023-04-01T00:23:21;35.08;33.68;37.80;;
41704;Laerm;861;48.808;9.006;2023-04-01T00:25:49;35.09;33.86;36.30;;
41704;Laerm;861;48.808;9.006;2023-04-01T00:28:19;35.06;33.59;36.16;;
41704;Laerm;861;48.808;9.006;2023-04-01T00:30:47;35.07;33.77;38.10;;
41704;Laerm;861;48.808;9.006;2023-04-01T00:33:15;35.11;33.72;39.88;;
41704;Laerm;861;48.808;9.006;2023-04-01T00:35:41;35.09;33.79;36.28;;
41704;Laerm;861;48.808;9.006;2023-04-01T00:38:08;35.08;33.91;37.17;;
41704;Laerm;861;48.808;9.006;2023-04-01T00:40:44;35.10;33.85;36.52;;
41704;Laerm;861;48.808;9.006;2023-04-01T00:43:19;35.08;33.75;36.33;;
41704;Laerm;861;48.808;9.006;2023-04-01T00:45:49;35.11;33.64;38.06;;
41704;Laerm;861;48.808;9.006;2023-04-01T00:48:30;35.03;33.91;36.41;;
41704;Laerm;861;48.808;9.006;2023-04-01T00:51:08;34.98;33.58;36.16;;
41704;Laerm;861;48.808;9.006;2023-04-01T00:53:45;35.05;33.67;39.51;;
41704;Laerm;861;48.808;9.006;2023-04-01T00:56:26;35.07;33.73;39.26;;
41704;Laerm;861;48.808;9.006;2023-04-01T00:59:12;35.06;33.80;36.41;;
41704;Laerm;861;48.808;9.006;2023-04-01T01:01:41;35.04;33.73;36.40;;
41704;Laerm;861;48.808;9.006;2023-04-01T01:04:24;35.01;33.58;37.22;;
41704;Laerm;861;48.808;9.006;2023-04-01T01:07:23;34.94;33.62;37.14;;
41704;Laerm;861;48.808;9.006;2023-04-01T01:10:11;34.92;33.59;36.32;;
41704;Laerm;861;48.808;9.006;2023-04-01T01:13:34;34.96;33.61;36.20;;
41704;Laerm;861;48.808;9.006;2023-04-01T01:16:26;34.97;33.64;36.01;;
41704;Laerm;861;48.808;9.006;2023-04-01T01:29:12;34.99;33.61;37.77;;
41704;Laerm;861;48.808;9.006;2023-04-01T01:35:48;34.81;33.35;36.16;;
41704;Laerm;861;48.808;9.006;2023-04-01T01:38:27;34.53;33.22;35.71;;
41704;Laerm;861;48.808;9.006;2023-04-01T01:41:01;34.36;33.11;35.60;;
41704;Laerm;861;48.808;9.006;2023-04-01T01:43:42;34.10;32.68;35.35;;
41704;Laerm;861;48.808;9.006;2023-04-01T01:46:19;33.86;32.57;35.04;;
41704;Laerm;861;48.808;9.006;2023-04-01T01:48:51;33.69;32.11;35.15;;
41704;Laerm;861;48.808;9.006;2023-04-01T01:51:22;32.54;31.22;33.85;;
41704;Laerm;861;48.808;9.006;2023-04-01T01:53:49;32.90;31.33;34.17;;
41704;Laerm;861;48.808;9.006;2023-04-01T01:56:23;33.41;32.13;34.71;;
41704;Laerm;861;48.808;9.006;2023-04-01T01:59:03;33.68;32.49;35.00;;
41704;Laerm;861;48.808;9.006;2023-04-01T02:01:40;33.91;32.65;35.24;;
41704;Laerm;861;48.808;9.006;2023-04-01T02:04:13;34.04;32.70;35.20;;
41704;Laerm;861;48.808;9.006;2023-04-01T02:07:02;34.04;32.86;35.24;;
41704;Laerm;861;48.808;9.006;2023-04-01T02:09:30;33.93;32.64;35.21;;
41704;Laerm;861;48.808;9.006;2023-04-01T02:12:06;33.81;32.45;35.02;;
41704;Laerm;861;48.808;9.006;2023-04-01T02:14:55;33.14;31.81;34.38;;
41704;Laerm;861;48.808;9.006;2023-04-01T02:17:34;32.35;30.58;33.82;;
41704;Laerm;861;48.808;9.006;2023-04-01T02:20:18;31.20;29.93;33.26;;
41704;Laerm;861;48.808;9.006;2023-04-01T02:22:56;31.17;29.86;33.47;;
41704;Laerm;861;48.808;9.006;2023-04-01T02:25:36;31.73;30.37;33.24;;
41704;Laerm;861;48.808;9.006;2023-04-01T02:28:10;32.60;31.07;34.24;;
41704;Laerm;861;48.808;9.006;2023-04-01T02:30:43;33.20;31.88;34.40;;
41704;Laerm;861;48.808;9.006;2023-04-01T02:33:11;33.37;32.07;34.57;;
41704;Laerm;861;48.808;9.006;2023-04-01T02:35:38;33.82;32.57;36.01;;
41704;Laerm;861;48.808;9.006;2023-04-01T02:38:06;33.91;32.39;35.19;;
41704;Laerm;861;48.808;9.006;2023-04-01T02:40:59;33.92;32.59;35.21;;
41704;Laerm;861;48.808;9.006;2023-04-01T02:43:27;34.16;32.55;35.48;;
41704;Laerm;861;48.808;9.006;2023-04-01T02:45:54;34.32;33.13;35.41;;
41704;Laerm;861;48.808;9.006;2023-04-01T02:48:21;34.33;33.20;35.64;;
41704;Laerm;861;48.808;9.006;2023-04-01T02:50:47;34.46;33.26;35.56;;
41704;Laerm;861;48.808;9.006;2023-04-01T02:53:14;34.55;33.09;35.77;;
41704;Laerm;861;48.808;9.006;2023-04-01T02:55:40;34.65;33.35;35.89;;
41704;Laerm;861;48.808;9.006;2023-04-01T02:58:07;34.68;33.55;38.97;;
41704;Laerm;861;48.808;9.006;2023-04-01T03:00:34;34.71;33.50;35.98;;
41704;Laerm;861;48.808;9.006;2023-04-01T03:03:01;34.83;33.38;37.69;;
41704;Laerm;861;48.808;9.006;2023-04-01T03:05:29;34.79;33.44;35.96;;
41704;Laerm;861;48.808;9.006;2023-04-01T03:07:55;34.76;33.35;37.26;;
41704;Laerm;861;48.808;9.006;2023-04-01T03:10:22;34.69;33.47;35.91;;
41704;Laerm;861;48.808;9.006;2023-04-01T03:12:49;34.63;33.51;35.81;;
41704;Laerm;861;48.808;9.006;2023-04-01T03:15:16;34.63;33.11;35.74;;
41704;Laerm;861;48.808;9.006;2023-04-01T03:17:43;34.64;33.36;36.45;;
41704;Laerm;861;48.808;9.006;2023-04-01T03:20:12;34.71;33.30;35.83;;
41704;Laerm;861;48.808;9.006;2023-04-01T03:22:39;34.74;33.39;35.91;;
41704;Laerm;861;48.808;9.006;2023-04-01T03:25:07;34.79;33.56;35.90;;
41704;Laerm;861;48.808;9.006;2023-04-01T03:27:34;34.80;33.57;36.10;;
41704;Laerm;861;48.808;9.006;2023-04-01T03:30:04;34.82;33.39;36.13;;
41704;Laerm;861;48.808;9.006;2023-04-01T03:32:32;34.80;33.53;35.97;;
41704;Laerm;861;48.808;9.006;2023-04-01T03:34:59;34.81;33.51;35.88;;
41704;Laerm;861;48.808;9.006;2023-04-01T03:37:26;34.77;33.26;35.85;;
41704;Laerm;861;48.808;9.006;2023-04-01T03:39:52;34.76;33.47;36.01;;
41704;Laerm;861;48.808;9.006;2023-04-01T03:42:19;34.79;33.52;36.16;;
41704;Laerm;861;48.808;9.006;2023-04-01T03:44:46;34.78;33.29;35.92;;
41704;Laerm;861;48.808;9.006;2023-04-01T03:47:12;34.81;33.64;36.04;;
41704;Laerm;861;48.808;9.006;2023-04-01T03:49:39;34.79;33.30;35.98;;
41704;Laerm;861;48.808;9.006;2023-04-01T03:52:10;34.77;33.47;35.99;;
41704;Laerm;861;48.808;9.006;2023-04-01T03:54:37;34.80;33.40;36.19;;
41704;Laerm;861;48.808;9.006;2023-04-01T03:57:04;34.81;33.43;35.94;;
41704;Laerm;861;48.808;9.006;2023-04-01T03:59:31;34.86;33.57;38.03;;
41704;Laerm;861;48.808;9.006;2023-04-01T04:01:58;34.86;33.46;36.01;;
41704;Laerm;861;48.808;9.006;2023-04-01T04:04:25;34.85;33.62;36.14;;
41704;Laerm;861;48.808;9.006;2023-04-01T04:06:53;34.87;33.57;36.13;;
41704;Laerm;861;48.808;9.006;2023-04-01T04:09:20;34.87;33.40;36.03;;
41704;Laerm;861;48.808;9.006;2023-04-01T04:11:48;34.89;33.64;36.47;;
41704;Laerm;861;48.808;9.006;2023-04-01T04:14:14;34.91;33.42;38.65;;
41704;Laerm;861;48.808;9.006;2023-04-01T04:16:41;34.89;33.74;36.25;;
41704;Laerm;861;48.808;9.006;2023-04-01T04:19:07;34.91;33.78;37.71;;
41704;Laerm;861;48.808;9.006;2023-04-01T04:21:34;34.87;33.58;36.39;;
41704;Laerm;861;48.808;9.006;2023-04-01T04:24:02;34.86;33.32;36.01;;
41704;Laerm;861;48.808;9.006;2023-04-01T04:26:28;34.83;33.33;36.32;;
41704;Laerm;861;48.808;9.006;2023-04-01T04:28:57;34.82;33.41;35.91;;
41704;Laerm;861;48.808;9.006;2023-04-01T04:31:26;34.83;33.66;38.27;;
41704;Laerm;861;48.808;9.006;2023-04-01T04:33:53;34.89;33.68;39.25;;
41704;Laerm;861;48.808;9.006;2023-04-01T04:36:21;34.86;33.20;39.26;;
41704;Laerm;861;48.808;9.006;2023-04-01T04:38:48;34.85;33.69;36.29;;
41704;Laerm;861;48.808;9.006;2023-04-01T04:41:18;34.85;33.61;36.04;;
41704;Laerm;861;48.808;9.006;2023-04-01T04:43:56;34.85;33.49;37.72;;
41704;Laerm;861;48.808;9.006;2023-04-01T04:46:25;34.95;33.43;39.81;;
41704;Laerm;861;48.808;9.006;2023-04-01T04:48:51;34.90;33.64;40.60;;
41704;Laerm;861;48.808;9.006;2023-04-01T04:51:21;34.87;33.62;36.29;;
41704;Laerm;861;48.808;9.006;2023-04-01T04:53:48;35.00;33.61;42.31;;
41704;Laerm;861;48.808;9.006;2023-04-01T04:56:21;35.01;33.56;41.68;;
41704;Laerm;861;48.808;9.006;2023-04-01T04:58:49;34.99;33.67;43.28;;
41704;Laerm;861;48.808;9.006;2023-04-01T05:01:17;34.91;33.47;41.09;;
41704;Laerm;861;48.808;9.006;2023-04-01T05:03:46;34.83;33.46;36.67;;
41704;Laerm;861;48.808;9.006;2023-04-01T05:06:17;34.85;33.40;40.00;;
41704;Laerm;861;48.808;9.006;2023-04-01T05:08:45;34.88;33.51;39.58;;
41704;Laerm;861;48.808;9.006;2023-04-01T05:11:18;34.84;33.60;36.15;;
41704;Laerm;861;48.808;9.006;2023-04-01T05:13:45;34.86;33.59;36.79;;
41704;Laerm;861;48.808;9.006;2023-04-01T05:16:19;34.92;33.33;40.49;;
41704;Laerm;861;48.808;9.006;2023-04-01T05:18:46;34.83;33.39;36.01;;
41704;Laerm;861;48.808;9.006;2023-04-01T05:21:15;34.84;33.34;37.93;;
41704;Laerm;861;48.808;9.006;2023-04-01T05:23:43;34.84;33.55;37.12;;
41704;Laerm;861;48.808;9.006;2023-04-01T05:26:14;34.81;33.67;36.03;;
41704;Laerm;861;48.808;9.006;2023-04-01T05:28:41;34.87;33.51;38.51;;
41704;Laerm;861;48.808;9.006;2023-04-01T05:31:09;34.85;33.35;38.02;;
41704;Laerm;861;48.808;9.006;2023-04-01T05:33:36;34.87;33.69;36.84;;
41704;Laerm;861;48.808;9.006;2023-04-01T05:36:14;34.11;31.74;43.17;;
41704;Laerm;861;48.808;9.006;2023-04-01T05:38:42;34.72;33.52;36.15;;
41704;Laerm;861;48.808;9.006;2023-04-01T05:41:09;34.84;33.42;36.23;;
41704;Laerm;861;48.808;9.006;2023-04-01T05:43:39;34.90;33.66;37.89;;
41704;Laerm;861;48.808;9.006;2023-04-01T05:46:06;34.97;33.41;37.51;;
41704;Laerm;861;48.808;9.006;2023-04-01T05:48:35;34.95;33.67;37.91;;
41704;Laerm;861;48.808;9.006;2023-04-01T05:51:03;34.97;33.73;37.14;;
41704;Laerm;861;48.808;9.006;2023-04-01T05:53:30;35.28;33.69;46.22;;
41704;Laerm;861;48.808;9.006;2023-04-01T05:56:01;34.98;33.70;40.90;;
41704;Laerm;861;48.808;9.006;2023-04-01T05:58:27;35.14;33.71;42.30;;
41704;Laerm;861;48.808;9.006;2023-04-01T06:01:10;35.24;33.69;44.35;;
41704;Laerm;861;48.808;9.006;2023-04-01T06:03:37;35.03;33.61;42.07;;
41704;Laerm;861;48.808;9.006;2023-04-01T06:06:08;35.04;33.61;41.46;;
41704;Laerm;861;48.808;9.006;2023-04-01T06:08:39;34.99;33.53;38.64;;
41704;Laerm;861;48.808;9.006;2023-04-01T06:14:10;34.99;33.60;38.05;;
41704;Laerm;861;48.808;9.006;2023-04-01T06:20:42;35.84;33.73;50.25;;
41704;Laerm;861;48.808;9.006;2023-04-01T06:49:17;34.99;33.81;36.31;;
41704;Laerm;861;48.808;9.006;2023-04-01T06:52:26;34.99;33.58;37.75;;
41704;Laerm;861;48.808;9.006;2023-04-01T07:00:50;35.09;33.64;37.33;;
41704;Laerm;861;48.808;9.006;2023-04-01T07:03:33;35.08;33.55;38.15;;
41704;Laerm;861;48.808;9.006;2023-04-01T07:06:09;35.05;33.72;39.35;;
41704;Laerm;861;48.808;9.006;2023-04-01T07:08:44;34.52;32.98;36.38;;
41704;Laerm;861;48.808;9.006;2023-04-01T07:11:30;35.13;33.67;44.01;;
41704;Laerm;861;48.808;9.006;2023-04-01T07:14:30;35.18;33.88;42.87;;
41704;Laerm;861;48.808;9.006;2023-04-01T07:17:42;35.17;33.64;37.55;;
41704;Laerm;861;48.808;9.006;2023-04-01T07:20:36;35.17;33.86;37.21;;
41704;Laerm;861;48.808;9.006;2023-04-01T07:23:21;35.24;33.99;38.20;;
41704;Laerm;861;48.808;9.006;2023-04-01T07:26:06;35.29;33.86;37.70;;
41704;Laerm;861;48.808;9.006;2023-04-01T07:28:37;35.28;33.97;39.63;;
41704;Laerm;861;48.808;9.006;2023-04-01T07:31:38;35.28;33.97;38.46;;
41704;Laerm;861;48.808;9.006;2023-04-01T07:34:39;35.23;33.85;36.70;;
41704;Laerm;861;48.808;9.006;2023-04-01T07:40:58;35.25;33.92;39.10;;
41704;Laerm;861;48.808;9.006;2023-04-01T07:44:01;35.24;33.86;39.40;;
41704;Laerm;861;48.808;9.006;2023-04-01T07:53:28;35.28;33.97;40.88;;
41704;Laerm;861;48.808;9.006;2023-04-01T07:56:10;35.29;33.84;40.99;;
41704;Laerm;861;48.808;9.006;2023-04-01T08:02:53;35.27;33.73;38.18;;
41704;Laerm;861;48.808;9.006;2023-04-01T08:05:57;35.08;32.54;38.57;;
41704;Laerm;861;48.808;9.006;2023-04-01T08:15:25;35.06;33.36;38.75;;
41704;Laerm;861;48.808;9.006;2023-04-01T08:20:51;33.91;31.04;37.64;;
41704;Laerm;861;48.808;9.006;2023-04-01T08:23:44;31.51;30.15;34.10;;
41704;Laerm;861;48.808;9.006;2023-04-01T08:26:42;31.36;29.66;54.66;;
41704;Laerm;861;48.808;9.006;2023-04-01T08:29:39;30.85;29.66;32.06;;
41704;Laerm;861;48.808;9.006;2023-04-01T08:32:23;30.56;29.33;31.70;;
41704;Laerm;861;48.808;9.006;2023-04-01T08:35:27;30.49;29.21;51.69;;
41704;Laerm;861;48.808;9.006;2023-04-01T08:38:24;30.20;28.90;31.34;;
41704;Laerm;861;48.808;9.006;2023-04-01T08:41:09;30.09;28.54;37.92;;
41704;Laerm;861;48.808;9.006;2023-04-01T08:50:06;37.64;28.36;73.15;;
41704;Laerm;861;48.808;9.006;2023-04-01T08:53:28;29.39;28.05;43.14;;
41704;Laerm;861;48.808;9.006;2023-04-01T08:56:20;29.25;27.97;31.03;;
41704;Laerm;861;48.808;9.006;2023-04-01T09:03:45;29.10;27.65;39.37;;
41704;Laerm;861;48.808;9.006;2023-04-01T09:06:51;29.02;27.78;30.40;;
41704;Laerm;861;48.808;9.006;2023-04-01T09:09:38;28.97;27.62;30.03;;
41704;Laerm;861;48.808;9.006;2023-04-01T09:12:38;28.97;27.66;32.40;;
41704;Laerm;861;48.808;9.006;2023-04-01T09:18:39;28.85;27.53;30.15;;
41704;Laerm;861;48.808;9.006;2023-04-01T09:25:24;28.78;27.47;30.09;;
41704;Laerm;861;48.808;9.006;2023-04-01T09:28:42;28.74;27.31;30.44;;
41704;Laerm;861;48.808;9.006;2023-04-01T09:38:14;28.65;27.26;29.80;;
41704;Laerm;861;48.808;9.006;2023-04-01T09:41:27;28.64;27.26;29.83;;
41704;Laerm;861;48.808;9.006;2023-04-01T09:44:44;28.63;27.37;30.21;;
41704;Laerm;861;48.808;9.006;2023-04-01T09:51:05;28.52;26.97;29.60;;
41704;Laerm;861;48.808;9.006;2023-04-01T09:58:00;28.50;27.12;39.61;;
41704;Laerm;861;48.808;9.006;2023-04-01T10:16:34;28.60;27.24;30.01;;
41704;Laerm;861;48.808;9.006;2023-04-01T10:19:53;30.84;28.05;34.36;;
41704;Laerm;861;48.808;9.006;2023-04-01T10:26:40;35.08;33.42;46.39;;
41704;Laerm;861;48.808;9.006;2023-04-01T10:33:06;35.23;33.88;40.37;;
41704;Laerm;861;48.808;9.006;2023-04-01T10:39:38;35.79;33.57;46.32;;
41704;Laerm;861;48.808;9.006;2023-04-01T10:43:11;35.24;33.47;44.49;;
41704;Laerm;861;48.808;9.006;2023-04-01T10:53:10;35.48;33.70;46.29;;
41704;Laerm;861;48.808;9.006;2023-04-01T10:56:39;35.41;33.50;51.19;;
41704;Laerm;861;48.808;9.006;2023-04-01T10:59:51;35.79;33.47;49.04;;
41704;Laerm;861;48.808;9.006;2023-04-01T11:03:26;35.55;33.51;48.95;;
41704;Laerm;861;48.808;9.006;2023-04-01T11:10:03;36.20;33.72;49.89;;
41704;Laerm;861;48.808;9.006;2023-04-01T11:38:44;35.49;33.85;49.86;;
41704;Laerm;861;48.808;9.006;2023-04-01T11:42:07;35.71;33.49;51.83;;
41704;Laerm;861;48.808;9.006;2023-04-01T11:45:08;35.71;33.52;51.93;;
41704;Laerm;861;48.808;9.006;2023-04-01T11:48:32;35.30;33.53;47.37;;
41704;Laerm;861;48.808;9.006;2023-04-01T11:55:02;36.59;33.63;54.25;;
41704;Laerm;861;48.808;9.006;2023-04-01T11:58:06;35.78;33.57;49.37;;
41704;Laerm;861;48.808;9.006;2023-04-01T12:04:32;35.26;33.42;45.14;;
41704;Laerm;861;48.808;9.006;2023-04-01T12:10:37;35.30;33.59;46.12;;
41704;Laerm;861;48.808;9.006;2023-04-01T12:13:27;37.02;33.64;52.85;;
41704;Laerm;861;48.808;9.006;2023-04-01T12:16:58;35.99;33.51;50.48;;
41704;Laerm;861;48.808;9.006;2023-04-01T12:26:19;35.28;33.53;48.40;;
41704;Laerm;861;48.808;9.006;2023-04-01T12:33:05;36.10;33.69;51.91;;
41704;Laerm;861;48.808;9.006;2023-04-01T12:40:05;35.41;33.61;48.15;;
41704;Laerm;861;48.808;9.006;2023-04-01T12:55:45;36.64;33.72;51.70;;
41704;Laerm;861;48.808;9.006;2023-04-01T12:59:01;35.36;33.59;48.80;;
41704;Laerm;861;48.808;9.006;2023-04-01T13:02:12;36.57;33.61;49.81;;
41704;Laerm;861;48.808;9.006;2023-04-01T13:08:23;35.14;33.45;45.61;;
41704;Laerm;861;48.808;9.006;2023-04-01T13:17:38;35.14;33.58;48.04;;
41704;Laerm;861;48.808;9.006;2023-04-01T13:20:29;35.02;33.57;44.33;;
41704;Laerm;861;48.808;9.006;2023-04-01T13:23:29;34.86;33.60;39.04;;
41704;Laerm;861;48.808;9.006;2023-04-01T13:29:10;35.03;33.42;44.37;;
41704;Laerm;861;48.808;9.006;2023-04-01T13:32:26;35.07;33.47;47.42;;
41704;Laerm;861;48.808;9.006;2023-04-01T13:45:12;35.24;33.22;49.20;;
41704;Laerm;861;48.808;9.006;2023-04-01T13:54:24;34.98;33.51;47.60;;
41704;Laerm;861;48.808;9.006;2023-04-01T13:57:27;35.16;33.50;47.61;;
41704;Laerm;861;48.808;9.006;2023-04-01T14:06:40;35.45;33.63;48.77;;
41704;Laerm;861;48.808;9.006;2023-04-01T14:09:59;35.18;33.62;44.10;;
41704;Laerm;861;48.808;9.006;2023-04-01T14:12:58;35.07;33.75;43.57;;
41704;Laerm;861;48.808;9.006;2023-04-01T14:16:04;32.63;30.02;39.44;;
41704;Laerm;861;48.808;9.006;2023-04-01T14:22:36;35.09;33.53;36.98;;
41704;Laerm;861;48.808;9.006;2023-04-01T14:32:51;35.07;33.65;39.18;;
41704;Laerm;861;48.808;9.006;2023-04-01T14:35:49;35.04;33.84;37.00;;
41704;Laerm;861;48.808;9.006;2023-04-01T14:41:56;35.23;33.49;46.98;;
41704;Laerm;861;48.808;9.006;2023-04-01T14:48:13;35.08;33.67;45.25;;
41704;Laerm;861;48.808;9.006;2023-04-01T14:51:22;35.01;33.79;37.74;;
41704;Laerm;861;48.808;9.006;2023-04-01T14:54:17;35.09;33.60;44.95;;
41704;Laerm;861;48.808;9.006;2023-04-01T14:57:27;35.05;33.84;37.97;;
41704;Laerm;861;48.808;9.006;2023-04-01T15:40:15;35.02;33.84;36.63;;
41704;Laerm;861;48.808;9.006;2023-04-01T15:43:27;35.17;33.66;44.35;;
41704;Laerm;861;48.808;9.006;2023-04-01T15:46:25;35.13;33.77;46.14;;
41704;Laerm;861;48.808;9.006;2023-04-01T15:49:37;35.03;33.42;39.19;;
41704;Laerm;861;48.808;9.006;2023-04-01T15:56:23;35.05;33.73;40.34;;
41704;Laerm;861;48.808;9.006;2023-04-01T15:59:39;35.03;33.61;41.54;;
41704;Laerm;861;48.808;9.006;2023-04-01T16:02:46;35.01;33.75;42.52;;
41704;Laerm;861;48.808;9.006;2023-04-01T16:09:25;35.04;33.76;40.69;;
41704;Laerm;861;48.808;9.006;2023-04-01T16:16:01;35.15;33.72;42.60;;
41704;Laerm;861;48.808;9.006;2023-04-01T16:33:55;35.00;33.67;40.77;;
41704;Laerm;861;48.808;9.006;2023-04-01T16:36:44;34.97;33.67;36.23;;
41704;Laerm;861;48.808;9.006;2023-04-01T16:39:32;34.99;33.78;38.89;;
41704;Laerm;861;48.808;9.006;2023-04-01T16:42:22;34.98;33.72;36.26;;
41704;Laerm;861;48.808;9.006;2023-04-01T16:47:55;34.99;33.43;36.26;;
41704;Laerm;861;48.808;9.006;2023-04-01T16:50:59;34.99;33.49;36.49;;
41704;Laerm;861;48.808;9.006;2023-04-01T16:54:06;35.02;33.37;36.17;;
41704;Laerm;861;48.808;9.006;2023-04-01T16:56:50;35.02;33.41;36.20;;
41704;Laerm;861;48.808;9.006;2023-04-01T17:03:11;35.01;33.49;36.34;;
41704;Laerm;861;48.808;9.006;2023-04-01T17:06:17;35.00;33.61;36.47;;
41704;Laerm;861;48.808;9.006;2023-04-01T17:12:47;35.02;33.66;36.51;;
41704;Laerm;861;48.808;9.006;2023-04-01T17:16:07;35.05;33.85;38.82;;
41704;Laerm;861;48.808;9.006;2023-04-01T17:19:25;35.02;33.65;36.64;;
41704;Laerm;861;48.808;9.006;2023-04-01T17:22:47;35.02;33.62;36.33;;
41704;Laerm;861;48.808;9.006;2023-04-01T17:34:59;35.03;33.75;36.26;;
41704;Laerm;861;48.808;9.006;2023-04-01T17:37:54;35.03;33.69;36.38;;
41704;Laerm;861;48.808;9.006;2023-04-01T17:41:06;35.01;33.70;36.26;;
41704;Laerm;861;48.808;9.006;2023-04-01T17:44:02;34.79;33.46;36.20;;
41704;Laerm;861;48.808;9.006;2023-04-01T17:47:14;34.26;32.81;35.49;;
41704;Laerm;861;48.808;9.006;2023-04-01T17:50:36;31.99;29.73;35.00;;
41704;Laerm;861;48.808;9.006;2023-04-01T18:10:07;31.39;29.99;32.67;;
41704;Laerm;861;48.808;9.006;2023-04-01T18:13:06;31.45;30.21;32.59;;
41704;Laerm;861;48.808;9.006;2023-04-01T18:19:02;31.61;30.37;32.74;;
41704;Laerm;861;48.808;9.006;2023-04-01T18:21:53;31.59;30.20;32.72;;
41704;Laerm;861;48.808;9.006;2023-04-01T18:24:35;31.69;30.44;33.06;;
41704;Laerm;861;48.808;9.006;2023-04-01T18:27:29;32.45;30.98;33.70;;
41704;Laerm;861;48.808;9.006;2023-04-01T18:30:13;33.28;31.76;34.69;;
41704;Laerm;861;48.808;9.006;2023-04-01T18:33:09;33.66;32.31;35.10;;
41704;Laerm;861;48.808;9.006;2023-04-01T18:39:22;34.00;32.69;35.21;;
41704;Laerm;861;48.808;9.006;2023-04-01T18:46:49;34.26;33.01;35.76;;
41704;Laerm;861;48.808;9.006;2023-04-01T18:49:39;34.32;32.97;35.58;;
41704;Laerm;861;48.808;9.006;2023-04-01T18:52:36;34.24;32.96;35.37;;
41704;Laerm;861;48.808;9.006;2023-04-01T18:57:58;34.31;32.81;35.32;;
41704;Laerm;861;48.808;9.006;2023-04-01T19:01:07;34.23;32.84;35.45;;
41704;Laerm;861;48.808;9.006;2023-04-01T19:06:57;34.26;32.63;35.56;;
41704;Laerm;861;48.808;9.006;2023-04-01T19:09:47;34.26;33.07;35.40;;
41704;Laerm;861;48.808;9.006;2023-04-01T19:12:56;34.29;32.95;35.52;;
41704;Laerm;861;48.808;9.006;2023-04-01T19:19:42;34.25;33.13;35.40;;
41704;Laerm;861;48.808;9.006;2023-04-01T19:23:31;34.14;32.88;35.38;;
41704;Laerm;861;48.808;9.006;2023-04-01T19:26:11;34.23;32.82;35.44;;
41704;Laerm;861;48.808;9.006;2023-04-01T19:29:16;34.26;32.90;35.43;;
41704;Laerm;861;48.808;9.006;2023-04-01T19:32:21;34.21;32.72;35.32;;
41704;Laerm;861;48.808;9.006;2023-04-01T19:35:38;34.10;32.70;35.29;;
41704;Laerm;861;48.808;9.006;2023-04-01T19:38:37;34.18;32.97;35.37;;
41704;Laerm;861;48.808;9.006;2023-04-01T19:44:51;34.16;32.81;35.38;;
41704;Laerm;861;48.808;9.006;2023-04-01T19:50:49;34.19;32.97;35.39;;
41704;Laerm;861;48.808;9.006;2023-04-01T20:06:17;34.28;33.05;35.41;;
41704;Laerm;861;48.808;9.006;2023-04-01T20:09:40;34.27;33.02;35.59;;
41704;Laerm;861;48.808;9.006;2023-04-01T20:13:05;34.28;32.93;35.58;;
41704;Laerm;861;48.808;9.006;2023-04-01T20:16:01;34.37;33.07;35.68;;
41704;Laerm;861;48.808;9.006;2023-04-01T20:18:54;34.43;33.14;35.63;;
41704;Laerm;861;48.808;9.006;2023-04-01T20:21:36;34.50;33.30;35.76;;
41704;Laerm;861;48.808;9.006;2023-04-01T20:24:46;34.50;32.97;35.68;;
41704;Laerm;861;48.808;9.006;2023-04-01T20:37:00;34.47;33.17;35.70;;
41704;Laerm;861;48.808;9.006;2023-04-01T20:40:23;34.49;33.22;35.65;;
41704;Laerm;861;48.808;9.006;2023-04-01T20:44:08;34.39;33.08;35.47;;
41704;Laerm;861;48.808;9.006;2023-04-01T20:47:20;34.40;33.03;40.11;;
41704;Laerm;861;48.808;9.006;2023-04-01T20:49:57;34.45;33.19;35.82;;
41704;Laerm;861;48.808;9.006;2023-04-01T20:52:57;34.45;33.22;35.68;;
41704;Laerm;861;48.808;9.006;2023-04-01T20:56:28;34.49;33.02;36.49;;
41704;Laerm;861;48.808;9.006;2023-04-01T21:02:50;34.46;33.19;35.68;;
41704;Laerm;861;48.808;9.006;2023-04-01T21:12:28;34.59;33.33;35.82;;
41704;Laerm;861;48.808;9.006;2023-04-01T21:15:22;34.59;33.29;35.73;;
41704;Laerm;861;48.808;9.006;2023-04-01T21:25:04;34.61;33.15;35.78;;
41704;Laerm;861;48.808;9.006;2023-04-01T21:28:19;34.59;33.31;35.90;;
41704;Laerm;861;48.808;9.006;2023-04-01T21:35:23;34.59;33.30;36.06;;
41704;Laerm;861;48.808;9.006;2023-04-01T21:38:12;34.55;33.11;35.62;;
41704;Laerm;861;48.808;9.006;2023-04-01T21:41:31;34.55;33.32;35.78;;
41704;Laerm;861;48.808;9.006;2023-04-01T21:44:20;34.59;33.24;36.38;;
41704;Laerm;861;48.808;9.006;2023-04-01T21:50:55;34.56;33.22;35.84;;
41704;Laerm;861;48.808;9.006;2023-04-01T21:54:21;34.58;33.35;35.76;;
41704;Laerm;861;48.808;9.006;2023-04-01T22:06:43;34.62;33.33;35.84;;
41704;Laerm;861;48.808;9.006;2023-04-01T22:10:05;34.66;33.15;35.92;;
41704;Laerm;861;48.808;9.006;2023-04-01T22:18:34;34.68;33.24;35.92;;
41704;Laerm;861;48.808;9.006;2023-04-01T22:21:30;34.71;33.44;36.00;;
41704;Laerm;861;48.808;9.006;2023-04-01T22:24:23;34.74;33.36;35.99;;
41704;Laerm;861;48.808;9.006;2023-04-01T22:26:59;34.73;33.49;35.90;;
41704;Laerm;861;48.808;9.006;2023-04-01T22:30:09;34.75;33.50;36.06;;
41704;Laerm;861;48.808;9.006;2023-04-01T22:42:46;34.71;33.36;35.82;;
41704;Laerm;861;48.808;9.006;2023-04-01T22:48:20;34.73;33.52;35.88;;
41704;Laerm;861;48.808;9.006;2023-04-01T22:51:22;34.73;33.43;35.95;;
41704;Laerm;861;48.808;9.006;2023-04-01T23:03:00;34.72;33.43;36.20;;
41704;Laerm;861;48.808;9.006;2023-04-01T23:05:31;34.70;33.27;35.95;;
41704;Laerm;861;48.808;9.006;2023-04-01T23:08:48;34.72;33.54;35.98;;
41704;Laerm;861;48.808;9.006;2023-04-01T23:14:33;34.71;33.33;35.88;;
41704;Laerm;861;48.808;9.006;2023-04-01T23:20:21;34.72;33.38;35.87;;
41704;Laerm;861;48.808;9.006;2023-04-01T23:29:18;34.73;33.47;35.94;;
41704;Laerm;861;48.808;9.006;2023-04-01T23:31:56;34.74;33.54;36.99;;
41704;Laerm;861;48.808;9.006;2023-04-01T23:34:36;34.73;33.43;35.97;;
41704;Laerm;861;48.808;9.006;2023-04-01T23:37:11;34.70;33.02;35.84;;
41704;Laerm;861;48.808;9.006;2023-04-01T23:39:47;34.72;33.28;35.91;;
41704;Laerm;861;48.808;9.006;2023-04-01T23:42:32;34.75;33.53;36.03;;
41704;Laerm;861;48.808;9.006;2023-04-01T23:45:13;34.72;33.26;35.99;;
41704;Laerm;861;48.808;9.006;2023-04-01T23:47:48;34.72;33.33;35.88;;
41704;Laerm;861;48.808;9.006;2023-04-01T23:50:25;34.75;33.30;35.98;;
41704;Laerm;861;48.808;9.006;2023-04-01T23:53:09;34.74;33.38;35.98;;
41704;Laerm;861;48.808;9.006;2023-04-01T23:55:43;34.73;33.23;36.01;;
